createdAt,value
2018-09-06T00:01:44.876Z,99.90
2018-09-06T00:04:15.016Z,99.90
2018-09-06T00:06:44.429Z,99.90
2018-09-06T00:09:13.903Z,99.90
2018-09-06T00:11:43.283Z,99.90
2018-09-06T00:14:12.736Z,99.90
2018-09-06T00:16:42.225Z,99.90
2018-09-06T00:19:11.686Z,99.90
2018-09-06T00:21:41.036Z,99.90
2018-09-06T00:24:10.453Z,99.90
2018-09-06T00:26:39.755Z,99.90
2018-09-06T00:29:09.188Z,99.90
2018-09-06T00:36:36.762Z,99.90
2018-09-06T00:39:07.897Z,99.90
2018-09-06T00:41:37.457Z,99.90
2018-09-06T00:44:07.213Z,99.90
2018-09-06T00:46:36.600Z,99.90
2018-09-06T00:49:06.125Z,99.90
2018-09-06T00:51:35.487Z,99.90
2018-09-06T00:54:04.876Z,99.90
2018-09-06T00:56:34.233Z,99.90
2018-09-06T00:59:03.706Z,99.90
2018-09-06T01:04:02.216Z,99.90
2018-09-06T01:06:31.636Z,99.90
2018-09-06T01:11:30.162Z,99.90
2018-09-06T01:13:59.622Z,99.90
2018-09-06T01:18:58.155Z,99.90
2018-09-06T01:21:27.570Z,99.90
2018-09-06T01:23:57.008Z,99.90
2018-09-06T01:26:26.474Z,99.90
2018-09-06T01:28:55.889Z,99.90
2018-09-06T01:33:55.356Z,99.90
2018-09-06T01:36:59.332Z,99.90
2018-09-06T01:39:28.704Z,99.90
2018-09-06T01:41:58.097Z,99.90
2018-09-06T01:49:25.640Z,99.90
2018-09-06T01:51:55.137Z,99.90
2018-09-06T01:59:37.876Z,99.90
2018-09-06T02:02:07.707Z,99.90
2018-09-06T02:07:07.060Z,99.90
2018-09-06T02:09:36.480Z,99.90
2018-09-06T02:12:05.658Z,99.90
2018-09-06T02:14:34.857Z,99.90
2018-09-06T02:19:33.060Z,99.90
2018-09-06T02:22:02.282Z,99.90
2018-09-06T02:24:31.583Z,99.90
2018-09-06T02:27:00.816Z,99.90
2018-09-06T02:29:30.007Z,99.90
2018-09-06T02:31:59.246Z,99.90
2018-09-06T02:34:28.498Z,99.90
2018-09-06T02:36:57.761Z,99.90
2018-09-06T02:44:29.309Z,99.90
2018-09-06T02:46:58.517Z,99.90
2018-09-06T02:49:33.157Z,99.90
2018-09-06T02:54:31.701Z,99.90
2018-09-06T02:57:00.959Z,99.90
2018-09-06T02:59:30.145Z,99.90
2018-09-06T03:01:59.418Z,99.90
2018-09-06T03:06:57.758Z,99.90
2018-09-06T03:14:28.678Z,99.90
2018-09-06T03:16:57.953Z,99.90
2018-09-06T03:19:27.546Z,99.90
2018-09-06T03:21:56.796Z,99.90
2018-09-06T03:26:55.070Z,99.90
2018-09-06T03:29:24.273Z,99.90
2018-09-06T03:31:53.568Z,99.90
2018-09-06T03:34:22.870Z,99.90
2018-09-06T03:36:52.092Z,99.90
2018-09-06T03:41:50.318Z,99.90
2018-09-06T03:46:48.672Z,99.90
2018-09-06T03:49:17.892Z,99.90
2018-09-06T03:54:16.249Z,99.90
2018-09-06T04:06:41.724Z,99.90
2018-09-06T04:09:11.598Z,99.90
2018-09-06T04:11:40.822Z,99.90
2018-09-06T04:14:10.122Z,99.90
2018-09-06T04:24:07.439Z,99.90
2018-09-06T04:26:36.723Z,99.90
2018-09-06T04:29:06.055Z,99.90
2018-09-06T04:31:35.298Z,99.90
2018-09-06T04:36:33.538Z,99.90
2018-09-06T04:39:02.861Z,99.90
2018-09-06T04:41:32.090Z,99.90
2018-09-06T04:46:30.351Z,99.90
2018-09-06T04:48:59.605Z,99.90
2018-09-06T04:58:56.304Z,99.90
2018-09-06T05:03:54.536Z,99.90
2018-09-06T05:06:23.761Z,99.90
2018-09-06T05:08:52.982Z,99.90
2018-09-06T05:11:22.215Z,99.90
2018-09-06T05:16:20.436Z,99.90
2018-09-06T05:21:18.629Z,99.90
2018-09-06T05:23:47.882Z,99.90
2018-09-06T05:26:17.105Z,99.90
2018-09-06T05:28:46.333Z,99.90
2018-09-06T05:31:15.552Z,99.90
2018-09-06T05:33:44.825Z,99.90
2018-09-06T05:36:14.196Z,99.90
2018-09-06T05:38:43.312Z,99.90
2018-09-06T05:41:12.580Z,99.90
2018-09-06T05:43:41.878Z,99.90
2018-09-06T05:46:11.460Z,99.90
2018-09-06T05:48:40.757Z,99.90
2018-09-06T05:51:10.038Z,99.90
2018-09-06T05:56:08.205Z,99.90
2018-09-06T05:58:37.555Z,99.90
2018-09-06T06:01:07.068Z,99.90
2018-09-06T06:08:44.464Z,99.90
2018-09-06T06:13:42.788Z,99.90
2018-09-06T06:18:41.977Z,99.90
2018-09-06T06:21:11.461Z,99.90
2018-09-06T06:23:40.734Z,99.60
2018-09-06T06:26:09.984Z,99.40
2018-09-06T06:31:08.321Z,98.40
2018-09-06T06:33:37.952Z,97.80
2018-09-06T06:36:07.648Z,97.80
2018-09-06T06:41:06.037Z,97.10
2018-09-06T06:43:35.277Z,97.00
2018-09-06T06:46:04.527Z,96.70
2018-09-06T06:48:33.771Z,96.50
2018-09-06T06:51:03.067Z,96.20
2018-09-06T06:53:32.335Z,95.00
2018-09-06T06:56:01.594Z,95.70
2018-09-06T06:58:30.832Z,95.40
2018-09-06T07:01:00.100Z,92.10
2018-09-06T07:05:58.401Z,95.10
2018-09-06T07:08:27.673Z,94.70
2018-09-06T07:10:56.908Z,94.60
2018-09-06T07:13:26.141Z,94.50
2018-09-06T07:15:55.354Z,94.10
2018-09-06T07:18:24.678Z,94.00
2018-09-06T07:23:22.875Z,94.00
2018-09-06T07:25:52.090Z,94.10
2018-09-06T07:30:50.309Z,93.80
2018-09-06T07:35:48.505Z,93.60
2018-09-06T07:38:17.731Z,93.40
2018-09-06T07:40:46.997Z,93.10
2018-09-06T07:45:45.341Z,92.90
2018-09-06T07:48:14.590Z,93.00
2018-09-06T07:50:43.817Z,92.60
2018-09-06T07:53:13.052Z,92.60
2018-09-06T07:58:11.229Z,92.20
2018-09-06T08:00:41.431Z,91.90
2018-09-06T08:03:11.607Z,91.80
2018-09-06T08:05:41.496Z,91.30
2018-09-06T08:08:10.730Z,91.00
2018-09-06T08:10:39.991Z,92.70
2018-09-06T08:13:09.295Z,90.70
2018-09-06T08:15:38.544Z,90.50
2018-09-06T08:18:07.927Z,90.20
2018-09-06T08:20:37.139Z,89.30
2018-09-06T08:25:35.906Z,88.80
2018-09-06T08:28:05.207Z,88.00
2018-09-06T08:30:34.552Z,87.30
2018-09-06T08:33:03.707Z,87.30
2018-09-06T08:35:32.939Z,86.60
2018-09-06T08:38:02.231Z,84.90
2018-09-06T08:40:31.534Z,84.30
2018-09-06T08:43:00.777Z,84.00
2018-09-06T08:45:30.133Z,84.40
2018-09-06T08:47:59.378Z,82.90
2018-09-06T08:50:28.629Z,83.70
2018-09-06T08:52:58.160Z,82.80
2018-09-06T08:55:27.374Z,82.80
2018-09-06T09:00:25.517Z,80.60
2018-09-06T09:05:23.915Z,81.10
2018-09-06T09:07:53.121Z,79.50
2018-09-06T09:10:22.330Z,79.40
2018-09-06T09:12:51.650Z,79.50
2018-09-06T09:17:49.958Z,79.70
2018-09-06T09:20:19.162Z,78.50
2018-09-06T09:25:17.451Z,76.60
2018-09-06T09:30:16.005Z,76.40
2018-09-06T09:32:45.307Z,77.90
2018-09-06T09:35:14.553Z,74.00
2018-09-06T09:37:43.776Z,73.50
2018-09-06T09:40:13.122Z,68.50
2018-09-06T09:42:42.341Z,72.70
2018-09-06T09:47:40.539Z,71.90
2018-09-06T09:50:09.803Z,72.20
2018-09-06T09:52:39.075Z,74.10
2018-09-06T09:57:37.678Z,73.10
2018-09-06T10:00:07.197Z,73.10
2018-09-06T10:02:41.737Z,72.70
2018-09-06T10:05:16.207Z,72.40
2018-09-06T10:10:19.790Z,71.00
2018-09-06T10:12:49.059Z,70.30
2018-09-06T10:15:18.327Z,70.90
2018-09-06T10:17:47.587Z,70.10
2018-09-06T10:20:16.877Z,69.60
2018-09-06T10:25:15.100Z,68.50
2018-09-06T10:30:13.541Z,68.00
2018-09-06T10:32:42.773Z,68.30
2018-09-06T10:35:12.050Z,68.60
2018-09-06T10:37:41.316Z,67.50
2018-09-06T10:42:39.531Z,67.20
2018-09-06T10:45:08.713Z,66.70
2018-09-06T10:47:38.162Z,60.70
2018-09-06T10:50:07.840Z,66.00
2018-09-06T10:52:37.289Z,65.80
2018-09-06T10:57:36.465Z,60.80
2018-09-06T11:00:09.218Z,64.60
2018-09-06T11:02:38.548Z,65.00
2018-09-06T11:05:07.858Z,66.40
2018-09-06T11:07:37.119Z,65.30
2018-09-06T11:10:06.770Z,64.90
2018-09-06T11:12:36.053Z,64.60
2018-09-06T11:15:05.416Z,65.00
2018-09-06T11:17:34.597Z,64.60
2018-09-06T11:20:03.819Z,64.30
2018-09-06T11:22:33.408Z,59.80
2018-09-06T11:25:02.569Z,66.00
2018-09-06T11:27:31.825Z,65.80
2018-09-06T11:30:01.103Z,66.90
2018-09-06T11:32:30.391Z,66.10
2018-09-06T11:37:28.647Z,63.10
2018-09-06T11:42:26.986Z,62.60
2018-09-06T11:44:56.156Z,61.90
2018-09-06T11:49:54.370Z,60.70
2018-09-06T11:52:23.671Z,66.30
2018-09-06T11:57:22.080Z,61.50
2018-09-06T11:59:51.346Z,61.80
2018-09-06T12:02:20.989Z,61.60
2018-09-06T12:04:50.221Z,58.00
2018-09-06T12:07:19.421Z,60.10
2018-09-06T12:09:48.685Z,60.10
2018-09-06T12:14:46.882Z,56.00
2018-09-06T12:17:16.130Z,60.40
2018-09-06T12:19:45.441Z,59.60
2018-09-06T12:22:14.693Z,60.50
2018-09-06T12:24:43.943Z,60.20
2018-09-06T12:29:42.531Z,60.60
2018-09-06T12:34:41.071Z,61.10
2018-09-06T12:37:12.518Z,55.50
2018-09-06T12:39:43.514Z,60.10
2018-09-06T12:44:42.739Z,59.80
2018-09-06T12:47:12.186Z,60.30
2018-09-06T12:49:41.601Z,59.80
2018-09-06T12:52:10.842Z,60.10
2018-09-06T12:54:40.078Z,59.80
2018-09-06T12:57:09.319Z,60.20
2018-09-06T12:59:38.517Z,59.60
2018-09-06T13:02:07.814Z,59.40
2018-09-06T13:09:35.100Z,58.80
2018-09-06T13:12:04.415Z,57.80
2018-09-06T13:14:33.652Z,58.90
2018-09-06T13:17:03.023Z,58.40
2018-09-06T13:19:32.258Z,59.60
2018-09-06T13:26:59.401Z,58.90
2018-09-06T13:31:57.707Z,59.10
2018-09-06T13:34:26.926Z,60.50
2018-09-06T13:36:56.159Z,59.20
2018-09-06T13:39:25.332Z,59.50
2018-09-06T13:41:54.558Z,59.50
2018-09-06T13:44:23.793Z,59.70
2018-09-06T13:46:53.123Z,59.60
2018-09-06T13:49:22.458Z,59.30
2018-09-06T13:51:51.705Z,59.70
2018-09-06T13:54:21.105Z,59.00
2018-09-06T13:56:50.301Z,59.70
2018-09-06T13:59:19.618Z,59.50
2018-09-06T14:01:48.921Z,59.40
2018-09-06T14:04:18.244Z,59.80
2018-09-06T14:06:47.510Z,59.40
2018-09-06T14:09:16.771Z,59.20
2018-09-06T14:11:46.046Z,60.00
2018-09-06T14:16:44.540Z,60.80
2018-09-06T14:19:13.790Z,59.50
2018-09-06T14:24:12.157Z,60.00
2018-09-06T14:26:41.391Z,59.10
2018-09-06T14:29:10.665Z,59.60
2018-09-06T14:31:40.612Z,59.90
2018-09-06T14:36:38.962Z,59.00
2018-09-06T14:39:09.065Z,53.30
2018-09-06T14:44:07.812Z,53.40
2018-09-06T14:49:06.040Z,58.70
2018-09-06T14:51:35.305Z,57.30
2018-09-06T14:54:04.547Z,54.40
2018-09-06T14:56:33.847Z,58.80
2018-09-06T14:59:03.058Z,60.40
2018-09-06T15:01:32.426Z,58.90
2018-09-06T15:04:01.600Z,58.60
2018-09-06T15:06:30.841Z,58.70
2018-09-06T15:09:00.082Z,58.70
2018-09-06T15:13:58.390Z,58.90
2018-09-06T15:16:27.563Z,58.90
2018-09-06T15:18:56.788Z,59.10
2018-09-06T15:21:26.015Z,58.90
2018-09-06T15:23:55.204Z,60.40
2018-09-06T15:26:24.482Z,58.90
2018-09-06T15:28:53.828Z,59.20
2018-09-06T15:31:23.134Z,58.60
2018-09-06T15:36:21.467Z,58.50
2018-09-06T15:38:50.715Z,55.10
2018-09-06T15:43:48.982Z,58.80
2018-09-06T15:56:14.244Z,58.60
2018-09-06T15:58:43.498Z,56.80
2018-09-06T16:01:12.763Z,58.70
2018-09-06T16:06:10.951Z,59.30
2018-09-06T16:11:09.154Z,59.60
2018-09-06T16:13:38.383Z,57.10
2018-09-06T16:16:07.573Z,60.00
2018-09-06T16:18:36.821Z,59.80
2018-09-06T16:21:06.041Z,59.70
2018-09-06T16:23:35.305Z,59.80
2018-09-06T16:26:04.598Z,60.90
2018-09-06T16:28:34.215Z,60.90
2018-09-06T16:33:32.878Z,61.00
2018-09-06T16:36:02.146Z,60.70
2018-09-06T16:45:58.726Z,60.70
2018-09-06T16:53:26.215Z,61.40
2018-09-06T16:55:55.445Z,61.70
2018-09-06T16:58:24.701Z,61.30
2018-09-06T17:00:54.074Z,62.30
2018-09-06T17:08:21.268Z,62.30
2018-09-06T17:10:50.522Z,61.20
2018-09-06T17:13:19.790Z,63.00
2018-09-06T17:15:49.059Z,62.80
2018-09-06T17:18:18.277Z,63.30
2018-09-06T17:23:16.574Z,63.60
2018-09-06T17:25:45.868Z,64.40
2018-09-06T17:28:15.151Z,64.10
2018-09-06T17:33:13.602Z,64.90
2018-09-06T17:35:42.920Z,64.90
2018-09-06T17:38:12.285Z,65.20
2018-09-06T17:43:11.271Z,59.60
2018-09-06T17:45:40.880Z,66.10
2018-09-06T17:48:10.237Z,66.00
2018-09-06T17:53:08.800Z,65.80
2018-09-06T17:55:38.180Z,66.00
2018-09-06T17:58:07.756Z,65.80
2018-09-06T18:00:45.381Z,66.00
2018-09-06T18:03:15.633Z,66.60
2018-09-06T18:05:45.304Z,62.00
2018-09-06T18:18:26.990Z,66.60
2018-09-06T18:28:24.513Z,66.90
2018-09-06T18:33:23.194Z,62.70
2018-09-06T18:40:51.228Z,66.30
2018-09-06T18:43:20.591Z,66.50
2018-09-06T18:55:47.473Z,66.00
2018-09-06T19:03:16.233Z,59.90
2018-09-06T19:08:14.873Z,66.10
2018-09-06T19:13:17.091Z,66.40
2018-09-06T19:15:47.597Z,60.70
2018-09-06T19:18:17.126Z,66.00
2018-09-06T19:20:46.424Z,65.90
2018-09-06T19:23:16.424Z,66.50
2018-09-06T19:28:14.954Z,66.40
2018-09-06T19:30:44.313Z,66.50
2018-09-06T19:33:13.583Z,66.90
2018-09-06T19:38:12.001Z,66.80
2018-09-06T19:40:41.383Z,66.90
2018-09-06T19:43:10.810Z,66.30
2018-09-06T19:45:40.291Z,67.10
2018-09-06T19:48:09.688Z,66.90
2018-09-06T19:50:39.590Z,67.20
2018-09-06T19:53:08.953Z,67.10
2018-09-06T19:55:38.328Z,67.20
2018-09-06T19:58:07.593Z,67.40
2018-09-06T20:00:36.936Z,67.50
2018-09-06T20:03:06.289Z,62.90
2018-09-06T20:05:35.609Z,67.00
2018-09-06T20:08:04.998Z,67.10
2018-09-06T20:10:34.257Z,67.30
2018-09-06T20:13:03.559Z,61.00
2018-09-06T20:15:33.113Z,67.50
2018-09-06T20:18:02.567Z,67.50
2018-09-06T20:20:32.208Z,68.20
2018-09-06T20:23:01.805Z,59.90
2018-09-06T20:30:29.519Z,68.40
2018-09-06T20:32:58.746Z,68.60
2018-09-06T20:35:28.019Z,68.70
2018-09-06T20:40:26.357Z,69.10
2018-09-06T20:46:06.125Z,71.90
2018-09-06T20:51:04.820Z,72.00
2018-09-06T20:53:45.573Z,72.10
2018-09-06T20:56:14.821Z,71.00
2018-09-06T21:03:42.234Z,72.10
2018-09-06T21:06:11.589Z,70.80
2018-09-06T21:08:40.846Z,73.40
2018-09-06T21:11:10.149Z,74.80
2018-09-06T21:13:39.576Z,72.60
2018-09-06T21:18:38.008Z,73.00
2018-09-06T21:21:07.299Z,72.50
2018-09-06T21:23:37.736Z,72.30
2018-09-06T21:26:07.100Z,72.00
2018-09-06T21:28:36.492Z,70.00
2018-09-06T21:31:05.740Z,64.00
2018-09-06T21:36:04.090Z,72.10
2018-09-06T21:38:33.388Z,72.30
2018-09-06T21:41:02.759Z,69.70
2018-09-06T21:46:01.046Z,71.10
2018-09-06T21:50:59.473Z,64.70
2018-09-06T21:53:28.751Z,72.20
2018-09-06T21:58:27.204Z,72.10
2018-09-06T22:00:56.677Z,72.00
2018-09-06T22:03:31.275Z,71.40
2018-09-06T22:06:00.726Z,72.10
2018-09-06T22:08:30.005Z,72.10
2018-09-06T22:10:59.316Z,72.20
2018-09-06T22:15:57.670Z,72.70
2018-09-06T22:18:26.961Z,72.70
2018-09-06T22:20:56.302Z,73.10
2018-09-06T22:23:25.618Z,73.00
2018-09-06T22:25:54.885Z,73.70
2018-09-06T22:30:53.114Z,72.90
2018-09-06T22:33:22.321Z,66.80
2018-09-06T22:35:51.620Z,73.30
2018-09-06T22:38:20.876Z,73.90
2018-09-06T22:40:50.174Z,73.50
2018-09-06T22:43:19.569Z,73.60
2018-09-06T22:50:47.169Z,73.30
2018-09-06T22:53:16.969Z,73.60
2018-09-06T22:55:46.347Z,73.20
2018-09-06T22:58:16.272Z,73.70
2018-09-06T23:00:45.598Z,74.00
2018-09-06T23:08:18.325Z,76.80
2018-09-06T23:10:47.688Z,78.00
2018-09-06T23:13:17.236Z,78.80
2018-09-06T23:15:46.533Z,80.80
2018-09-06T23:18:15.893Z,83.80
2018-09-06T23:20:45.221Z,85.40
2018-09-06T23:23:14.552Z,86.20
2018-09-06T23:33:11.544Z,92.00
2018-09-06T23:35:44.374Z,93.40
2018-09-06T23:38:16.133Z,94.00
2018-09-06T23:43:20.360Z,96.30
2018-09-06T23:45:52.824Z,97.20
2018-09-06T23:48:24.646Z,97.90
2018-09-06T23:53:24.304Z,99.00
2018-09-06T23:55:53.834Z,99.70
